sensor_id;sensor_type;location;lat;lon;timestamp;P1;durP1;ratioP1;P2;durP2;ratioP2
49223;SDS011;35050;51.316;5.994;2023-10-19T00:00:13;5.80;;;5.00;;
49223;SDS011;35050;51.316;5.994;2023-10-19T00:02:48;8.52;;;5.28;;
49223;SDS011;35050;51.316;5.994;2023-10-19T00:05:16;7.00;;;4.72;;
49223;SDS011;35050;51.316;5.994;2023-10-19T00:07:42;6.38;;;5.05;;
49223;SDS011;35050;51.316;5.994;2023-10-19T00:10:08;7.35;;;5.10;;
49223;SDS011;35050;51.316;5.994;2023-10-19T00:12:35;6.30;;;5.65;;
49223;SDS011;35050;51.316;5.994;2023-10-19T00:15:01;6.05;;;5.05;;
49223;SDS011;35050;51.316;5.994;2023-10-19T00:17:29;7.47;;;5.72;;
49223;SDS011;35050;51.316;5.994;2023-10-19T00:19:57;7.05;;;4.90;;
49223;SDS011;35050;51.316;5.994;2023-10-19T00:22:25;7.18;;;5.22;;
49223;SDS011;35050;51.316;5.994;2023-10-19T00:24:51;8.70;;;5.28;;
49223;SDS011;35050;51.316;5.994;2023-10-19T00:27:16;6.60;;;5.43;;
49223;SDS011;35050;51.316;5.994;2023-10-19T00:29:44;6.53;;;5.43;;
49223;SDS011;35050;51.316;5.994;2023-10-19T00:32:20;5.57;;;4.70;;
49223;SDS011;35050;51.316;5.994;2023-10-19T00:34:49;7.57;;;5.18;;
49223;SDS011;35050;51.316;5.994;2023-10-19T00:37:17;8.68;;;5.35;;
49223;SDS011;35050;51.316;5.994;2023-10-19T00:39:45;7.85;;;5.60;;
49223;SDS011;35050;51.316;5.994;2023-10-19T00:42:19;6.38;;;4.88;;
49223;SDS011;35050;51.316;5.994;2023-10-19T00:44:55;5.90;;;5.03;;
49223;SDS011;35050;51.316;5.994;2023-10-19T00:47:27;7.28;;;5.30;;
49223;SDS011;35050;51.316;5.994;2023-10-19T00:50:03;5.03;;;4.53;;
49223;SDS011;35050;51.316;5.994;2023-10-19T00:52:30;7.25;;;4.75;;
49223;SDS011;35050;51.316;5.994;2023-10-19T00:54:57;6.75;;;4.68;;
49223;SDS011;35050;51.316;5.994;2023-10-19T00:57:24;6.15;;;4.82;;
49223;SDS011;35050;51.316;5.994;2023-10-19T00:59:59;4.97;;;4.28;;
49223;SDS011;35050;51.316;5.994;2023-10-19T01:02:45;5.85;;;4.80;;
49223;SDS011;35050;51.316;5.994;2023-10-19T01:05:11;4.82;;;3.95;;
49223;SDS011;35050;51.316;5.994;2023-10-19T01:07:46;5.47;;;4.38;;
49223;SDS011;35050;51.316;5.994;2023-10-19T01:10:18;8.40;;;5.13;;
49223;SDS011;35050;51.316;5.994;2023-10-19T01:12:45;5.13;;;4.55;;
49223;SDS011;35050;51.316;5.994;2023-10-19T01:15:12;4.90;;;4.32;;
49223;SDS011;35050;51.316;5.994;2023-10-19T01:17:39;5.45;;;4.75;;
49223;SDS011;35050;51.316;5.994;2023-10-19T01:20:24;5.03;;;4.53;;
49223;SDS011;35050;51.316;5.994;2023-10-19T01:22:58;6.40;;;4.88;;
49223;SDS011;35050;51.316;5.994;2023-10-19T01:25:45;5.03;;;4.13;;
49223;SDS011;35050;51.316;5.994;2023-10-19T01:28:24;5.65;;;4.50;;
49223;SDS011;35050;51.316;5.994;2023-10-19T01:31:07;4.65;;;3.90;;
49223;SDS011;35050;51.316;5.994;2023-10-19T01:33:33;5.38;;;4.15;;
49223;SDS011;35050;51.316;5.994;2023-10-19T01:36:00;4.95;;;4.45;;
49223;SDS011;35050;51.316;5.994;2023-10-19T01:38:44;6.40;;;4.38;;
49223;SDS011;35050;51.316;5.994;2023-10-19T01:41:09;5.85;;;4.38;;
49223;SDS011;35050;51.316;5.994;2023-10-19T01:43:44;5.05;;;4.38;;
49223;SDS011;35050;51.316;5.994;2023-10-19T01:46:15;4.95;;;4.00;;
49223;SDS011;35050;51.316;5.994;2023-10-19T01:48:50;6.15;;;4.88;;
49223;SDS011;35050;51.316;5.994;2023-10-19T01:51:21;5.68;;;4.85;;
49223;SDS011;35050;51.316;5.994;2023-10-19T01:53:52;5.07;;;4.10;;
49223;SDS011;35050;51.316;5.994;2023-10-19T01:56:20;4.57;;;4.10;;
49223;SDS011;35050;51.316;5.994;2023-10-19T01:58:47;4.55;;;3.75;;
49223;SDS011;35050;51.316;5.994;2023-10-19T02:01:14;4.63;;;3.70;;
49223;SDS011;35050;51.316;5.994;2023-10-19T02:03:53;5.32;;;4.00;;
49223;SDS011;35050;51.316;5.994;2023-10-19T02:06:27;4.40;;;4.00;;
49223;SDS011;35050;51.316;5.994;2023-10-19T02:09:02;4.25;;;3.65;;
49223;SDS011;35050;51.316;5.994;2023-10-19T02:11:55;4.28;;;3.45;;
49223;SDS011;35050;51.316;5.994;2023-10-19T02:14:22;3.80;;;3.40;;
49223;SDS011;35050;51.316;5.994;2023-10-19T02:16:55;4.97;;;4.13;;
49223;SDS011;35050;51.316;5.994;2023-10-19T02:19:22;3.72;;;3.40;;
49223;SDS011;35050;51.316;5.994;2023-10-19T02:21:51;3.50;;;3.13;;
49223;SDS011;35050;51.316;5.994;2023-10-19T02:24:18;4.35;;;3.15;;
49223;SDS011;35050;51.316;5.994;2023-10-19T02:26:45;3.08;;;2.78;;
49223;SDS011;35050;51.316;5.994;2023-10-19T02:29:16;5.35;;;3.10;;
49223;SDS011;35050;51.316;5.994;2023-10-19T02:31:43;3.60;;;2.80;;
49223;SDS011;35050;51.316;5.994;2023-10-19T02:34:10;3.22;;;2.88;;
49223;SDS011;35050;51.316;5.994;2023-10-19T02:36:40;4.40;;;2.45;;
49223;SDS011;35050;51.316;5.994;2023-10-19T02:39:08;3.28;;;2.30;;
49223;SDS011;35050;51.316;5.994;2023-10-19T02:44:07;2.65;;;2.30;;
49223;SDS011;35050;51.316;5.994;2023-10-19T02:46:55;2.65;;;1.80;;
49223;SDS011;35050;51.316;5.994;2023-10-19T02:49:24;2.40;;;1.90;;
49223;SDS011;35050;51.316;5.994;2023-10-19T02:51:51;2.78;;;1.85;;
49223;SDS011;35050;51.316;5.994;2023-10-19T02:54:21;3.72;;;2.00;;
49223;SDS011;35050;51.316;5.994;2023-10-19T02:56:49;2.70;;;1.88;;
49223;SDS011;35050;51.316;5.994;2023-10-19T02:59:20;4.38;;;1.90;;
49223;SDS011;35050;51.316;5.994;2023-10-19T03:01:48;3.50;;;1.42;;
49223;SDS011;35050;51.316;5.994;2023-10-19T03:04:25;2.55;;;1.50;;
49223;SDS011;35050;51.316;5.994;2023-10-19T03:06:53;6.03;;;1.50;;
49223;SDS011;35050;51.316;5.994;2023-10-19T03:09:21;1.35;;;1.23;;
49223;SDS011;35050;51.316;5.994;2023-10-19T03:11:52;4.65;;;1.30;;
49223;SDS011;35050;51.316;5.994;2023-10-19T03:14:20;2.05;;;1.23;;
49223;SDS011;35050;51.316;5.994;2023-10-19T03:16:50;1.67;;;0.93;;
49223;SDS011;35050;51.316;5.994;2023-10-19T03:19:15;1.65;;;0.90;;
49223;SDS011;35050;51.316;5.994;2023-10-19T03:21:41;3.55;;;0.93;;
49223;SDS011;35050;51.316;5.994;2023-10-19T03:24:08;2.20;;;0.82;;
49223;SDS011;35050;51.316;5.994;2023-10-19T03:26:51;7.35;;;1.00;;
49223;SDS011;35050;51.316;5.994;2023-10-19T03:29:19;3.45;;;1.08;;
49223;SDS011;35050;51.316;5.994;2023-10-19T03:31:56;2.13;;;0.90;;
49223;SDS011;35050;51.316;5.994;2023-10-19T03:34:23;3.15;;;1.00;;
49223;SDS011;35050;51.316;5.994;2023-10-19T03:36:49;2.25;;;0.80;;
49223;SDS011;35050;51.316;5.994;2023-10-19T03:39:19;3.10;;;0.75;;
49223;SDS011;35050;51.316;5.994;2023-10-19T03:41:46;1.88;;;0.75;;
49223;SDS011;35050;51.316;5.994;2023-10-19T03:44:12;2.47;;;0.63;;
49223;SDS011;35050;51.316;5.994;2023-10-19T03:47:00;3.03;;;0.60;;
49223;SDS011;35050;51.316;5.994;2023-10-19T03:49:29;0.52;;;0.40;;
49223;SDS011;35050;51.316;5.994;2023-10-19T03:51:59;3.25;;;0.43;;
49223;SDS011;35050;51.316;5.994;2023-10-19T03:54:51;2.92;;;0.70;;
49223;SDS011;35050;51.316;5.994;2023-10-19T03:57:17;1.60;;;0.60;;
49223;SDS011;35050;51.316;5.994;2023-10-19T03:59:50;0.65;;;0.32;;
49223;SDS011;35050;51.316;5.994;2023-10-19T04:02:23;3.67;;;0.60;;
49223;SDS011;35050;51.316;5.994;2023-10-19T04:05:00;1.30;;;0.40;;
49223;SDS011;35050;51.316;5.994;2023-10-19T04:07:27;3.70;;;0.60;;
49223;SDS011;35050;51.316;5.994;2023-10-19T04:09:56;3.97;;;0.60;;
49223;SDS011;35050;51.316;5.994;2023-10-19T04:12:31;2.65;;;0.55;;
49223;SDS011;35050;51.316;5.994;2023-10-19T04:14:57;2.70;;;0.63;;
49223;SDS011;35050;51.316;5.994;2023-10-19T04:17:25;3.38;;;0.60;;
49223;SDS011;35050;51.316;5.994;2023-10-19T04:19:52;1.80;;;0.77;;
49223;SDS011;35050;51.316;5.994;2023-10-19T04:22:19;3.10;;;0.80;;
49223;SDS011;35050;51.316;5.994;2023-10-19T04:24:51;2.88;;;0.60;;
49223;SDS011;35050;51.316;5.994;2023-10-19T04:27:17;3.47;;;0.70;;
49223;SDS011;35050;51.316;5.994;2023-10-19T04:29:48;1.20;;;0.60;;
49223;SDS011;35050;51.316;5.994;2023-10-19T04:32:14;2.17;;;0.57;;
49223;SDS011;35050;51.316;5.994;2023-10-19T04:34:49;2.63;;;0.63;;
49223;SDS011;35050;51.316;5.994;2023-10-19T04:37:15;1.90;;;0.70;;
49223;SDS011;35050;51.316;5.994;2023-10-19T04:39:43;3.38;;;0.90;;
49223;SDS011;35050;51.316;5.994;2023-10-19T04:42:09;6.50;;;2.25;;
49223;SDS011;35050;51.316;5.994;2023-10-19T04:44:35;3.63;;;1.05;;
49223;SDS011;35050;51.316;5.994;2023-10-19T04:47:01;5.10;;;1.20;;
49223;SDS011;35050;51.316;5.994;2023-10-19T04:49:26;5.57;;;2.00;;
49223;SDS011;35050;51.316;5.994;2023-10-19T04:51:53;8.93;;;3.17;;
49223;SDS011;35050;51.316;5.994;2023-10-19T04:54:19;5.43;;;2.50;;
49223;SDS011;35050;51.316;5.994;2023-10-19T04:56:44;3.55;;;1.73;;
49223;SDS011;35050;51.316;5.994;2023-10-19T04:59:10;2.35;;;1.17;;
49223;SDS011;35050;51.316;5.994;2023-10-19T05:01:36;6.43;;;1.20;;
49223;SDS011;35050;51.316;5.994;2023-10-19T05:04:02;1.77;;;0.90;;
49223;SDS011;35050;51.316;5.994;2023-10-19T05:06:28;1.52;;;0.80;;
49223;SDS011;35050;51.316;5.994;2023-10-19T05:08:54;2.72;;;0.63;;
49223;SDS011;35050;51.316;5.994;2023-10-19T05:11:19;1.95;;;0.70;;
49223;SDS011;35050;51.316;5.994;2023-10-19T05:13:45;1.60;;;0.68;;
49223;SDS011;35050;51.316;5.994;2023-10-19T05:16:11;4.22;;;0.98;;
49223;SDS011;35050;51.316;5.994;2023-10-19T05:18:37;4.32;;;1.05;;
49223;SDS011;35050;51.316;5.994;2023-10-19T05:21:03;2.15;;;0.70;;
49223;SDS011;35050;51.316;5.994;2023-10-19T05:23:30;3.17;;;0.63;;
49223;SDS011;35050;51.316;5.994;2023-10-19T05:26:02;2.17;;;0.80;;
49223;SDS011;35050;51.316;5.994;2023-10-19T05:28:28;4.53;;;1.25;;
49223;SDS011;35050;51.316;5.994;2023-10-19T05:30:54;2.92;;;0.90;;
49223;SDS011;35050;51.316;5.994;2023-10-19T05:33:20;2.15;;;1.20;;
49223;SDS011;35050;51.316;5.994;2023-10-19T05:35:49;3.15;;;1.40;;
49223;SDS011;35050;51.316;5.994;2023-10-19T05:38:16;5.63;;;1.38;;
49223;SDS011;35050;51.316;5.994;2023-10-19T05:40:44;1.90;;;0.88;;
49223;SDS011;35050;51.316;5.994;2023-10-19T05:43:10;3.58;;;1.10;;
49223;SDS011;35050;51.316;5.994;2023-10-19T05:45:36;4.28;;;1.67;;
49223;SDS011;35050;51.316;5.994;2023-10-19T05:48:05;1.65;;;0.90;;
49223;SDS011;35050;51.316;5.994;2023-10-19T05:50:34;5.28;;;1.40;;
49223;SDS011;35050;51.316;5.994;2023-10-19T05:53:00;6.40;;;1.73;;
49223;SDS011;35050;51.316;5.994;2023-10-19T05:55:28;4.05;;;1.70;;
49223;SDS011;35050;51.316;5.994;2023-10-19T05:57:54;2.90;;;1.60;;
49223;SDS011;35050;51.316;5.994;2023-10-19T06:00:20;5.80;;;1.30;;
49223;SDS011;35050;51.316;5.994;2023-10-19T06:02:50;3.75;;;1.60;;
49223;SDS011;35050;51.316;5.994;2023-10-19T06:05:17;4.28;;;1.27;;
49223;SDS011;35050;51.316;5.994;2023-10-19T06:07:47;5.15;;;0.88;;
49223;SDS011;35050;51.316;5.994;2023-10-19T06:10:15;3.65;;;1.40;;
49223;SDS011;35050;51.316;5.994;2023-10-19T06:12:43;3.78;;;1.10;;
49223;SDS011;35050;51.316;5.994;2023-10-19T06:15:11;4.00;;;1.42;;
49223;SDS011;35050;51.316;5.994;2023-10-19T06:17:40;3.50;;;1.00;;
49223;SDS011;35050;51.316;5.994;2023-10-19T06:20:07;1.95;;;1.08;;
49223;SDS011;35050;51.316;5.994;2023-10-19T06:22:44;3.97;;;1.00;;
49223;SDS011;35050;51.316;5.994;2023-10-19T06:25:20;1.58;;;0.93;;
49223;SDS011;35050;51.316;5.994;2023-10-19T06:27:47;3.95;;;0.98;;
49223;SDS011;35050;51.316;5.994;2023-10-19T06:30:13;3.75;;;1.00;;
49223;SDS011;35050;51.316;5.994;2023-10-19T06:33:04;3.40;;;1.02;;
49223;SDS011;35050;51.316;5.994;2023-10-19T06:35:32;2.63;;;1.25;;
49223;SDS011;35050;51.316;5.994;2023-10-19T06:37:59;2.30;;;0.95;;
49223;SDS011;35050;51.316;5.994;2023-10-19T06:40:25;3.83;;;1.00;;
49223;SDS011;35050;51.316;5.994;2023-10-19T06:42:54;1.58;;;1.00;;
49223;SDS011;35050;51.316;5.994;2023-10-19T06:45:21;3.45;;;1.58;;
49223;SDS011;35050;51.316;5.994;2023-10-19T06:47:47;3.67;;;1.02;;
49223;SDS011;35050;51.316;5.994;2023-10-19T06:50:15;3.03;;;0.98;;
49223;SDS011;35050;51.316;5.994;2023-10-19T06:52:43;4.25;;;0.90;;
49223;SDS011;35050;51.316;5.994;2023-10-19T06:55:10;3.75;;;1.00;;
49223;SDS011;35050;51.316;5.994;2023-10-19T06:57:46;2.70;;;0.90;;
49223;SDS011;35050;51.316;5.994;2023-10-19T07:00:14;5.72;;;1.30;;
49223;SDS011;35050;51.316;5.994;2023-10-19T07:02:44;3.83;;;1.20;;
49223;SDS011;35050;51.316;5.994;2023-10-19T07:05:11;3.97;;;1.23;;
49223;SDS011;35050;51.316;5.994;2023-10-19T07:07:41;3.42;;;1.02;;
49223;SDS011;35050;51.316;5.994;2023-10-19T07:10:08;2.67;;;1.23;;
49223;SDS011;35050;51.316;5.994;2023-10-19T07:12:35;2.10;;;0.80;;
49223;SDS011;35050;51.316;5.994;2023-10-19T07:15:02;4.38;;;1.48;;
49223;SDS011;35050;51.316;5.994;2023-10-19T07:17:35;3.60;;;1.10;;
49223;SDS011;35050;51.316;5.994;2023-10-19T07:20:02;4.28;;;1.50;;
49223;SDS011;35050;51.316;5.994;2023-10-19T07:22:31;4.45;;;1.10;;
49223;SDS011;35050;51.316;5.994;2023-10-19T07:24:57;3.25;;;1.17;;
49223;SDS011;35050;51.316;5.994;2023-10-19T07:27:23;2.25;;;1.00;;
49223;SDS011;35050;51.316;5.994;2023-10-19T07:29:52;2.75;;;1.20;;
49223;SDS011;35050;51.316;5.994;2023-10-19T07:32:18;3.95;;;1.17;;
49223;SDS011;35050;51.316;5.994;2023-10-19T07:34:43;2.35;;;1.50;;
49223;SDS011;35050;51.316;5.994;2023-10-19T07:37:12;4.85;;;1.60;;
49223;SDS011;35050;51.316;5.994;2023-10-19T07:39:44;4.45;;;2.20;;
49223;SDS011;35050;51.316;5.994;2023-10-19T07:42:11;5.88;;;2.20;;
49223;SDS011;35050;51.316;5.994;2023-10-19T07:44:36;4.13;;;1.90;;
49223;SDS011;35050;51.316;5.994;2023-10-19T07:47:02;4.82;;;2.38;;
49223;SDS011;35050;51.316;5.994;2023-10-19T07:49:28;4.07;;;1.95;;
49223;SDS011;35050;51.316;5.994;2023-10-19T07:51:54;6.82;;;2.22;;
49223;SDS011;35050;51.316;5.994;2023-10-19T07:54:20;3.70;;;1.50;;
49223;SDS011;35050;51.316;5.994;2023-10-19T07:56:46;6.55;;;1.52;;
49223;SDS011;35050;51.316;5.994;2023-10-19T07:59:12;4.53;;;2.03;;
49223;SDS011;35050;51.316;5.994;2023-10-19T08:01:38;7.55;;;1.38;;
49223;SDS011;35050;51.316;5.994;2023-10-19T08:04:04;5.53;;;1.48;;
49223;SDS011;35050;51.316;5.994;2023-10-19T08:06:30;2.75;;;1.30;;
49223;SDS011;35050;51.316;5.994;2023-10-19T08:08:56;1.55;;;1.00;;
49223;SDS011;35050;51.316;5.994;2023-10-19T08:11:23;2.03;;;1.00;;
49223;SDS011;35050;51.316;5.994;2023-10-19T08:13:49;3.83;;;1.52;;
49223;SDS011;35050;51.316;5.994;2023-10-19T08:16:15;4.40;;;1.67;;
49223;SDS011;35050;51.316;5.994;2023-10-19T08:18:41;3.53;;;1.20;;
49223;SDS011;35050;51.316;5.994;2023-10-19T08:21:07;3.72;;;1.30;;
49223;SDS011;35050;51.316;5.994;2023-10-19T08:23:33;4.15;;;1.00;;
49223;SDS011;35050;51.316;5.994;2023-10-19T08:25:59;1.30;;;0.98;;
49223;SDS011;35050;51.316;5.994;2023-10-19T08:28:24;7.95;;;1.40;;
49223;SDS011;35050;51.316;5.994;2023-10-19T08:30:50;5.45;;;1.60;;
49223;SDS011;35050;51.316;5.994;2023-10-19T08:33:25;4.40;;;1.13;;
49223;SDS011;35050;51.316;5.994;2023-10-19T08:35:52;3.03;;;1.10;;
49223;SDS011;35050;51.316;5.994;2023-10-19T08:38:19;2.72;;;1.38;;
49223;SDS011;35050;51.316;5.994;2023-10-19T08:40:45;7.30;;;1.17;;
49223;SDS011;35050;51.316;5.994;2023-10-19T08:43:12;4.82;;;1.27;;
49223;SDS011;35050;51.316;5.994;2023-10-19T08:45:43;2.63;;;1.10;;
49223;SDS011;35050;51.316;5.994;2023-10-19T08:48:09;2.22;;;1.10;;
49223;SDS011;35050;51.316;5.994;2023-10-19T08:50:36;5.63;;;1.75;;
49223;SDS011;35050;51.316;5.994;2023-10-19T08:53:06;11.57;;;2.40;;
49223;SDS011;35050;51.316;5.994;2023-10-19T08:55:33;7.00;;;1.20;;
49223;SDS011;35050;51.316;5.994;2023-10-19T08:58:02;4.80;;;1.30;;
49223;SDS011;35050;51.316;5.994;2023-10-19T09:03:32;4.93;;;1.33;;
49223;SDS011;35050;51.316;5.994;2023-10-19T09:06:04;3.95;;;1.10;;
49223;SDS011;35050;51.316;5.994;2023-10-19T09:08:30;4.70;;;1.47;;
49223;SDS011;35050;51.316;5.994;2023-10-19T09:11:08;5.75;;;1.40;;
49223;SDS011;35050;51.316;5.994;2023-10-19T09:13:50;7.03;;;1.40;;
49223;SDS011;35050;51.316;5.994;2023-10-19T09:16:17;10.13;;;2.13;;
49223;SDS011;35050;51.316;5.994;2023-10-19T09:18:46;4.85;;;1.20;;
49223;SDS011;35050;51.316;5.994;2023-10-19T09:21:19;8.27;;;1.63;;
49223;SDS011;35050;51.316;5.994;2023-10-19T09:23:55;7.63;;;1.42;;
49223;SDS011;35050;51.316;5.994;2023-10-19T09:26:25;5.05;;;1.42;;
49223;SDS011;35050;51.316;5.994;2023-10-19T09:28:51;9.10;;;1.38;;
49223;SDS011;35050;51.316;5.994;2023-10-19T09:31:18;6.30;;;1.40;;
49223;SDS011;35050;51.316;5.994;2023-10-19T09:33:46;6.82;;;1.42;;
49223;SDS011;35050;51.316;5.994;2023-10-19T09:36:14;6.70;;;1.52;;
49223;SDS011;35050;51.316;5.994;2023-10-19T09:41:09;4.13;;;1.50;;
49223;SDS011;35050;51.316;5.994;2023-10-19T09:43:43;8.20;;;2.00;;
49223;SDS011;35050;51.316;5.994;2023-10-19T09:46:24;6.68;;;1.30;;
49223;SDS011;35050;51.316;5.994;2023-10-19T09:48:53;6.55;;;1.70;;
49223;SDS011;35050;51.316;5.994;2023-10-19T09:51:20;3.65;;;1.20;;
49223;SDS011;35050;51.316;5.994;2023-10-19T09:56:38;4.28;;;1.17;;
49223;SDS011;35050;51.316;5.994;2023-10-19T09:59:22;7.90;;;1.48;;
49223;SDS011;35050;51.316;5.994;2023-10-19T10:02:08;6.15;;;1.58;;
49223;SDS011;35050;51.316;5.994;2023-10-19T10:04:43;6.32;;;1.70;;
49223;SDS011;35050;51.316;5.994;2023-10-19T10:07:13;6.50;;;1.50;;
49223;SDS011;35050;51.316;5.994;2023-10-19T10:09:41;8.48;;;2.03;;
49223;SDS011;35050;51.316;5.994;2023-10-19T10:12:18;5.40;;;1.70;;
49223;SDS011;35050;51.316;5.994;2023-10-19T10:15:05;6.72;;;1.70;;
49223;SDS011;35050;51.316;5.994;2023-10-19T10:17:38;6.32;;;1.38;;
49223;SDS011;35050;51.316;5.994;2023-10-19T10:22:39;5.70;;;1.35;;
49223;SDS011;35050;51.316;5.994;2023-10-19T10:25:06;4.95;;;1.27;;
49223;SDS011;35050;51.316;5.994;2023-10-19T10:27:35;6.68;;;1.65;;
49223;SDS011;35050;51.316;5.994;2023-10-19T10:30:13;9.23;;;1.50;;
49223;SDS011;35050;51.316;5.994;2023-10-19T10:32:50;7.97;;;1.70;;
49223;SDS011;35050;51.316;5.994;2023-10-19T10:38:05;5.65;;;1.73;;
49223;SDS011;35050;51.316;5.994;2023-10-19T10:40:42;6.32;;;1.65;;
49223;SDS011;35050;51.316;5.994;2023-10-19T10:43:12;9.50;;;2.60;;
49223;SDS011;35050;51.316;5.994;2023-10-19T10:45:38;6.65;;;2.10;;
49223;SDS011;35050;51.316;5.994;2023-10-19T10:48:14;4.68;;;1.27;;
49223;SDS011;35050;51.316;5.994;2023-10-19T10:50:41;6.43;;;1.52;;
49223;SDS011;35050;51.316;5.994;2023-10-19T10:53:07;4.00;;;1.60;;
49223;SDS011;35050;51.316;5.994;2023-10-19T10:55:36;7.78;;;1.50;;
49223;SDS011;35050;51.316;5.994;2023-10-19T10:58:03;4.93;;;1.77;;
49223;SDS011;35050;51.316;5.994;2023-10-19T11:00:29;6.88;;;1.85;;
49223;SDS011;35050;51.316;5.994;2023-10-19T11:03:02;7.32;;;2.25;;
49223;SDS011;35050;51.316;5.994;2023-10-19T11:05:32;8.40;;;2.63;;
49223;SDS011;35050;51.316;5.994;2023-10-19T11:08:10;5.35;;;1.52;;
49223;SDS011;35050;51.316;5.994;2023-10-19T11:13:11;6.80;;;1.70;;
49223;SDS011;35050;51.316;5.994;2023-10-19T11:15:39;7.63;;;1.50;;
49223;SDS011;35050;51.316;5.994;2023-10-19T11:21:00;4.63;;;1.42;;
49223;SDS011;35050;51.316;5.994;2023-10-19T11:23:42;5.28;;;1.40;;
49223;SDS011;35050;51.316;5.994;2023-10-19T11:26:21;4.43;;;1.30;;
49223;SDS011;35050;51.316;5.994;2023-10-19T11:29:01;10.55;;;1.80;;
49223;SDS011;35050;51.316;5.994;2023-10-19T11:31:34;6.20;;;1.70;;
49223;SDS011;35050;51.316;5.994;2023-10-19T11:34:03;5.75;;;1.48;;
49223;SDS011;35050;51.316;5.994;2023-10-19T11:36:29;6.07;;;1.45;;
49223;SDS011;35050;51.316;5.994;2023-10-19T11:38:54;5.75;;;1.70;;
49223;SDS011;35050;51.316;5.994;2023-10-19T11:41:21;7.28;;;1.80;;
49223;SDS011;35050;51.316;5.994;2023-10-19T11:43:47;5.78;;;1.70;;
49223;SDS011;35050;51.316;5.994;2023-10-19T11:46:14;6.03;;;1.50;;
49223;SDS011;35050;51.316;5.994;2023-10-19T11:48:41;6.82;;;1.58;;
49223;SDS011;35050;51.316;5.994;2023-10-19T11:51:09;3.58;;;1.20;;
49223;SDS011;35050;51.316;5.994;2023-10-19T11:53:40;5.38;;;1.13;;
49223;SDS011;35050;51.316;5.994;2023-10-19T11:56:07;6.45;;;1.63;;
49223;SDS011;35050;51.316;5.994;2023-10-19T11:58:34;6.00;;;1.50;;
49223;SDS011;35050;51.316;5.994;2023-10-19T12:01:02;3.58;;;1.30;;
49223;SDS011;35050;51.316;5.994;2023-10-19T12:03:32;4.55;;;1.80;;
49223;SDS011;35050;51.316;5.994;2023-10-19T12:06:02;6.03;;;2.17;;
49223;SDS011;35050;51.316;5.994;2023-10-19T12:08:33;8.90;;;2.95;;
49223;SDS011;35050;51.316;5.994;2023-10-19T12:11:00;7.03;;;2.22;;
49223;SDS011;35050;51.316;5.994;2023-10-19T12:13:28;6.35;;;1.95;;
49223;SDS011;35050;51.316;5.994;2023-10-19T12:15:54;6.45;;;2.08;;
49223;SDS011;35050;51.316;5.994;2023-10-19T12:18:20;6.20;;;2.60;;
49223;SDS011;35050;51.316;5.994;2023-10-19T12:20:46;8.35;;;2.45;;
49223;SDS011;35050;51.316;5.994;2023-10-19T12:23:13;6.78;;;3.25;;
49223;SDS011;35050;51.316;5.994;2023-10-19T12:25:39;6.57;;;3.08;;
49223;SDS011;35050;51.316;5.994;2023-10-19T12:28:07;6.70;;;2.30;;
49223;SDS011;35050;51.316;5.994;2023-10-19T12:30:33;5.30;;;2.08;;
49223;SDS011;35050;51.316;5.994;2023-10-19T12:33:03;3.70;;;1.63;;
49223;SDS011;35050;51.316;5.994;2023-10-19T12:35:40;6.05;;;1.80;;
49223;SDS011;35050;51.316;5.994;2023-10-19T12:38:25;5.90;;;2.15;;
49223;SDS011;35050;51.316;5.994;2023-10-19T12:40:50;5.78;;;1.85;;
49223;SDS011;35050;51.316;5.994;2023-10-19T12:43:17;3.88;;;1.63;;
49223;SDS011;35050;51.316;5.994;2023-10-19T12:45:50;5.07;;;2.72;;
49223;SDS011;35050;51.316;5.994;2023-10-19T12:48:18;6.03;;;1.63;;
49223;SDS011;35050;51.316;5.994;2023-10-19T12:50:45;4.82;;;1.73;;
49223;SDS011;35050;51.316;5.994;2023-10-19T12:53:11;3.65;;;1.52;;
49223;SDS011;35050;51.316;5.994;2023-10-19T12:55:38;4.88;;;1.50;;
49223;SDS011;35050;51.316;5.994;2023-10-19T12:58:04;4.78;;;2.00;;
49223;SDS011;35050;51.316;5.994;2023-10-19T13:00:34;7.00;;;1.63;;
49223;SDS011;35050;51.316;5.994;2023-10-19T13:03:04;4.45;;;1.40;;
49223;SDS011;35050;51.316;5.994;2023-10-19T13:05:36;6.95;;;1.63;;
49223;SDS011;35050;51.316;5.994;2023-10-19T13:08:05;6.20;;;1.90;;
49223;SDS011;35050;51.316;5.994;2023-10-19T13:10:34;6.97;;;2.08;;
49223;SDS011;35050;51.316;5.994;2023-10-19T13:13:04;9.93;;;3.15;;
49223;SDS011;35050;51.316;5.994;2023-10-19T13:15:31;9.13;;;2.50;;
49223;SDS011;35050;51.316;5.994;2023-10-19T13:17:59;8.32;;;2.72;;
49223;SDS011;35050;51.316;5.994;2023-10-19T13:20:29;6.75;;;2.40;;
49223;SDS011;35050;51.316;5.994;2023-10-19T13:23:01;10.00;;;3.03;;
49223;SDS011;35050;51.316;5.994;2023-10-19T13:25:32;5.65;;;2.63;;
49223;SDS011;35050;51.316;5.994;2023-10-19T13:28:07;7.53;;;2.13;;
49223;SDS011;35050;51.316;5.994;2023-10-19T13:30:45;6.28;;;2.30;;
49223;SDS011;35050;51.316;5.994;2023-10-19T13:33:13;6.88;;;2.10;;
49223;SDS011;35050;51.316;5.994;2023-10-19T13:35:40;7.03;;;2.15;;
49223;SDS011;35050;51.316;5.994;2023-10-19T13:38:09;6.47;;;1.70;;
49223;SDS011;35050;51.316;5.994;2023-10-19T13:40:37;6.75;;;2.05;;
49223;SDS011;35050;51.316;5.994;2023-10-19T13:43:04;7.70;;;1.98;;
49223;SDS011;35050;51.316;5.994;2023-10-19T13:45:34;9.20;;;2.15;;
49223;SDS011;35050;51.316;5.994;2023-10-19T13:48:04;6.22;;;2.05;;
49223;SDS011;35050;51.316;5.994;2023-10-19T13:50:32;6.22;;;1.75;;
49223;SDS011;35050;51.316;5.994;2023-10-19T13:52:59;3.53;;;1.65;;
49223;SDS011;35050;51.316;5.994;2023-10-19T13:55:28;7.03;;;2.08;;
49223;SDS011;35050;51.316;5.994;2023-10-19T13:57:55;6.25;;;1.90;;
49223;SDS011;35050;51.316;5.994;2023-10-19T14:00:21;6.00;;;2.25;;
49223;SDS011;35050;51.316;5.994;2023-10-19T14:03:00;7.13;;;2.35;;
49223;SDS011;35050;51.316;5.994;2023-10-19T14:05:26;10.10;;;1.90;;
49223;SDS011;35050;51.316;5.994;2023-10-19T14:07:54;8.30;;;1.95;;
49223;SDS011;35050;51.316;5.994;2023-10-19T14:10:19;8.93;;;2.20;;
49223;SDS011;35050;51.316;5.994;2023-10-19T14:12:46;7.03;;;1.80;;
49223;SDS011;35050;51.316;5.994;2023-10-19T14:15:17;6.60;;;2.10;;
49223;SDS011;35050;51.316;5.994;2023-10-19T14:17:44;6.50;;;1.80;;
49223;SDS011;35050;51.316;5.994;2023-10-19T14:20:11;7.28;;;1.65;;
49223;SDS011;35050;51.316;5.994;2023-10-19T14:22:39;6.60;;;1.92;;
49223;SDS011;35050;51.316;5.994;2023-10-19T14:25:09;8.35;;;2.03;;
49223;SDS011;35050;51.316;5.994;2023-10-19T14:27:45;4.13;;;1.73;;
49223;SDS011;35050;51.316;5.994;2023-10-19T14:30:14;4.30;;;1.30;;
49223;SDS011;35050;51.316;5.994;2023-10-19T14:32:44;6.38;;;1.80;;
49223;SDS011;35050;51.316;5.994;2023-10-19T14:37:40;5.97;;;2.03;;
49223;SDS011;35050;51.316;5.994;2023-10-19T14:42:40;9.23;;;1.92;;
49223;SDS011;35050;51.316;5.994;2023-10-19T14:45:10;6.57;;;1.55;;
49223;SDS011;35050;51.316;5.994;2023-10-19T14:47:41;7.93;;;1.90;;
49223;SDS011;35050;51.316;5.994;2023-10-19T14:50:11;5.07;;;1.50;;
49223;SDS011;35050;51.316;5.994;2023-10-19T14:52:40;7.43;;;1.80;;
49223;SDS011;35050;51.316;5.994;2023-10-19T14:55:09;10.52;;;2.08;;
49223;SDS011;35050;51.316;5.994;2023-10-19T14:57:36;6.45;;;1.83;;
49223;SDS011;35050;51.316;5.994;2023-10-19T15:00:06;4.07;;;1.58;;
49223;SDS011;35050;51.316;5.994;2023-10-19T15:02:52;11.68;;;2.15;;
49223;SDS011;35050;51.316;5.994;2023-10-19T15:05:26;6.75;;;1.67;;
49223;SDS011;35050;51.316;5.994;2023-10-19T15:07:53;6.78;;;1.88;;
49223;SDS011;35050;51.316;5.994;2023-10-19T15:10:29;7.35;;;2.17;;
49223;SDS011;35050;51.316;5.994;2023-10-19T15:12:55;7.88;;;1.70;;
49223;SDS011;35050;51.316;5.994;2023-10-19T15:15:24;5.32;;;1.30;;
49223;SDS011;35050;51.316;5.994;2023-10-19T15:17:50;8.27;;;2.13;;
49223;SDS011;35050;51.316;5.994;2023-10-19T15:20:18;7.70;;;2.20;;
49223;SDS011;35050;51.316;5.994;2023-10-19T15:22:46;8.77;;;2.10;;
49223;SDS011;35050;51.316;5.994;2023-10-19T15:25:12;5.88;;;1.73;;
49223;SDS011;35050;51.316;5.994;2023-10-19T15:27:39;4.47;;;1.80;;